sensor_id;sensor_type;location;lat;lon;timestamp;pressure;altitude;pressure_sealevel;temperature
44429;BMP180;30134;47.866;-4.222;2023-03-11T00:00:20;100114.00;;;22.60
44429;BMP180;30134;47.866;-4.222;2023-03-11T00:02:50;100122.00;;;22.70
44429;BMP180;30134;47.866;-4.222;2023-03-11T00:05:27;100133.00;;;22.70
44429;BMP180;30134;47.866;-4.222;2023-03-11T00:07:54;100145.00;;;22.70
44429;BMP180;30134;47.866;-4.222;2023-03-11T00:10:33;100150.00;;;22.70
44429;BMP180;30134;47.866;-4.222;2023-03-11T00:13:02;100144.00;;;22.70
44429;BMP180;30134;47.866;-4.222;2023-03-11T00:15:30;100141.00;;;22.70
44429;BMP180;30134;47.866;-4.222;2023-03-11T00:17:56;100156.00;;;22.70
44429;BMP180;30134;47.866;-4.222;2023-03-11T00:20:30;100176.00;;;22.80
44429;BMP180;30134;47.866;-4.222;2023-03-11T00:22:56;100176.00;;;22.70
44429;BMP180;30134;47.866;-4.222;2023-03-11T00:25:26;100155.00;;;22.70
44429;BMP180;30134;47.866;-4.222;2023-03-11T00:27:52;100150.00;;;22.70
44429;BMP180;30134;47.866;-4.222;2023-03-11T00:30:20;100134.00;;;22.70
44429;BMP180;30134;47.866;-4.222;2023-03-11T00:32:49;100135.00;;;22.70
44429;BMP180;30134;47.866;-4.222;2023-03-11T00:35:23;100152.00;;;22.70
44429;BMP180;30134;47.866;-4.222;2023-03-11T00:37:54;100159.00;;;22.70
44429;BMP180;30134;47.866;-4.222;2023-03-11T00:40:22;100143.00;;;22.70
44429;BMP180;30134;47.866;-4.222;2023-03-11T00:42:48;100137.00;;;22.80
44429;BMP180;30134;47.866;-4.222;2023-03-11T00:45:15;100136.00;;;22.80
44429;BMP180;30134;47.866;-4.222;2023-03-11T00:47:41;100145.00;;;22.70
44429;BMP180;30134;47.866;-4.222;2023-03-11T00:50:09;100155.00;;;22.80
44429;BMP180;30134;47.866;-4.222;2023-03-11T00:52:38;100150.00;;;22.70
44429;BMP180;30134;47.866;-4.222;2023-03-11T00:55:05;100140.00;;;22.80
44429;BMP180;30134;47.866;-4.222;2023-03-11T00:57:31;100145.00;;;22.70
44429;BMP180;30134;47.866;-4.222;2023-03-11T00:59:59;100162.00;;;22.70
44429;BMP180;30134;47.866;-4.222;2023-03-11T01:02:25;100158.00;;;22.70
44429;BMP180;30134;47.866;-4.222;2023-03-11T01:04:54;100145.00;;;22.80
44429;BMP180;30134;47.866;-4.222;2023-03-11T01:07:21;100133.00;;;22.70
44429;BMP180;30134;47.866;-4.222;2023-03-11T01:09:47;100163.00;;;22.80
44429;BMP180;30134;47.866;-4.222;2023-03-11T01:12:13;100196.00;;;22.80
44429;BMP180;30134;47.866;-4.222;2023-03-11T01:14:39;100142.00;;;22.80
44429;BMP180;30134;47.866;-4.222;2023-03-11T01:17:05;100143.00;;;22.80
44429;BMP180;30134;47.866;-4.222;2023-03-11T01:19:31;100161.00;;;22.80
44429;BMP180;30134;47.866;-4.222;2023-03-11T01:21:57;100167.00;;;22.80
44429;BMP180;30134;47.866;-4.222;2023-03-11T01:24:23;100154.00;;;22.80
44429;BMP180;30134;47.866;-4.222;2023-03-11T01:26:49;100156.00;;;22.70
44429;BMP180;30134;47.866;-4.222;2023-03-11T01:29:15;100164.00;;;22.80
44429;BMP180;30134;47.866;-4.222;2023-03-11T01:31:41;100151.00;;;22.80
44429;BMP180;30134;47.866;-4.222;2023-03-11T01:34:07;100157.00;;;22.80
44429;BMP180;30134;47.866;-4.222;2023-03-11T01:36:33;100147.00;;;22.80
44429;BMP180;30134;47.866;-4.222;2023-03-11T01:38:59;100152.00;;;22.80
44429;BMP180;30134;47.866;-4.222;2023-03-11T01:41:25;100143.00;;;22.80
44429;BMP180;30134;47.866;-4.222;2023-03-11T01:43:53;100141.00;;;22.70
44429;BMP180;30134;47.866;-4.222;2023-03-11T01:49:17;100158.00;;;22.80
44429;BMP180;30134;47.866;-4.222;2023-03-11T01:51:54;100160.00;;;22.80
44429;BMP180;30134;47.866;-4.222;2023-03-11T01:54:30;100151.00;;;22.80
44429;BMP180;30134;47.866;-4.222;2023-03-11T01:56:59;100162.00;;;22.80
44429;BMP180;30134;47.866;-4.222;2023-03-11T01:59:31;100162.00;;;22.90
44429;BMP180;30134;47.866;-4.222;2023-03-11T02:02:29;100164.00;;;22.80
44429;BMP180;30134;47.866;-4.222;2023-03-11T02:04:57;100150.00;;;22.80
44429;BMP180;30134;47.866;-4.222;2023-03-11T02:07:24;100152.00;;;22.80
44429;BMP180;30134;47.866;-4.222;2023-03-11T02:09:50;100151.00;;;22.90
44429;BMP180;30134;47.866;-4.222;2023-03-11T02:12:16;100151.00;;;22.90
44429;BMP180;30134;47.866;-4.222;2023-03-11T02:14:46;100151.00;;;22.80
44429;BMP180;30134;47.866;-4.222;2023-03-11T02:17:14;100139.00;;;22.80
44429;BMP180;30134;47.866;-4.222;2023-03-11T02:22:27;100153.00;;;22.90
44429;BMP180;30134;47.866;-4.222;2023-03-11T02:25:26;100151.00;;;22.80
44429;BMP180;30134;47.866;-4.222;2023-03-11T02:27:54;100146.00;;;22.80
44429;BMP180;30134;47.866;-4.222;2023-03-11T02:30:23;100147.00;;;22.90
44429;BMP180;30134;47.866;-4.222;2023-03-11T02:32:50;100147.00;;;22.80
44429;BMP180;30134;47.866;-4.222;2023-03-11T02:35:17;100153.00;;;22.90
44429;BMP180;30134;47.866;-4.222;2023-03-11T02:37:50;100135.00;;;22.90
44429;BMP180;30134;47.866;-4.222;2023-03-11T02:42:58;100135.00;;;22.90
44429;BMP180;30134;47.866;-4.222;2023-03-11T02:45:26;100133.00;;;22.90
44429;BMP180;30134;47.866;-4.222;2023-03-11T02:47:54;100133.00;;;22.90
44429;BMP180;30134;47.866;-4.222;2023-03-11T02:50:22;100131.00;;;22.90
44429;BMP180;30134;47.866;-4.222;2023-03-11T02:52:50;100142.00;;;22.90
44429;BMP180;30134;47.866;-4.222;2023-03-11T02:55:18;100126.00;;;22.90
44429;BMP180;30134;47.866;-4.222;2023-03-11T02:57:48;100127.00;;;22.90
44429;BMP180;30134;47.866;-4.222;2023-03-11T03:00:16;100136.00;;;22.90
44429;BMP180;30134;47.866;-4.222;2023-03-11T03:02:44;100134.00;;;22.90
44429;BMP180;30134;47.866;-4.222;2023-03-11T03:05:11;100129.00;;;22.90
44429;BMP180;30134;47.866;-4.222;2023-03-11T03:07:38;100127.00;;;22.90
44429;BMP180;30134;47.866;-4.222;2023-03-11T03:10:05;100117.00;;;22.90
44429;BMP180;30134;47.866;-4.222;2023-03-11T03:12:31;100117.00;;;22.90
44429;BMP180;30134;47.866;-4.222;2023-03-11T03:14:58;100127.00;;;22.90
44429;BMP180;30134;47.866;-4.222;2023-03-11T03:17:24;100126.00;;;22.90
44429;BMP180;30134;47.866;-4.222;2023-03-11T03:19:51;100123.00;;;22.90
44429;BMP180;30134;47.866;-4.222;2023-03-11T03:22:17;100126.00;;;22.90
44429;BMP180;30134;47.866;-4.222;2023-03-11T03:24:43;100131.00;;;23.00
44429;BMP180;30134;47.866;-4.222;2023-03-11T03:27:09;100133.00;;;23.00
44429;BMP180;30134;47.866;-4.222;2023-03-11T03:29:35;100133.00;;;22.90
44429;BMP180;30134;47.866;-4.222;2023-03-11T03:32:01;100126.00;;;22.90
44429;BMP180;30134;47.866;-4.222;2023-03-11T03:34:27;100133.00;;;22.90
44429;BMP180;30134;47.866;-4.222;2023-03-11T03:36:53;100127.00;;;22.90
44429;BMP180;30134;47.866;-4.222;2023-03-11T03:39:19;100118.00;;;22.90
44429;BMP180;30134;47.866;-4.222;2023-03-11T03:41:45;100111.00;;;22.90
44429;BMP180;30134;47.866;-4.222;2023-03-11T03:44:11;100115.00;;;22.90
44429;BMP180;30134;47.866;-4.222;2023-03-11T03:46:37;100113.00;;;22.90
44429;BMP180;30134;47.866;-4.222;2023-03-11T03:49:04;100122.00;;;22.90
44429;BMP180;30134;47.866;-4.222;2023-03-11T03:51:30;100116.00;;;22.90
44429;BMP180;30134;47.866;-4.222;2023-03-11T03:53:56;100124.00;;;22.90
44429;BMP180;30134;47.866;-4.222;2023-03-11T03:56:22;100127.00;;;22.90
44429;BMP180;30134;47.866;-4.222;2023-03-11T03:58:48;100126.00;;;22.90
44429;BMP180;30134;47.866;-4.222;2023-03-11T04:01:14;100141.00;;;23.00
44429;BMP180;30134;47.866;-4.222;2023-03-11T04:03:40;100138.00;;;22.90
44429;BMP180;30134;47.866;-4.222;2023-03-11T04:06:20;100133.00;;;22.90
44429;BMP180;30134;47.866;-4.222;2023-03-11T04:08:46;100139.00;;;22.90
44429;BMP180;30134;47.866;-4.222;2023-03-11T04:11:13;100141.00;;;22.90
44429;BMP180;30134;47.866;-4.222;2023-03-11T04:13:39;100142.00;;;22.90
44429;BMP180;30134;47.866;-4.222;2023-03-11T04:16:06;100149.00;;;23.00
44429;BMP180;30134;47.866;-4.222;2023-03-11T04:18:36;100138.00;;;22.90
44429;BMP180;30134;47.866;-4.222;2023-03-11T04:21:05;100146.00;;;22.90
44429;BMP180;30134;47.866;-4.222;2023-03-11T04:23:32;100149.00;;;22.90
44429;BMP180;30134;47.866;-4.222;2023-03-11T04:25:59;100152.00;;;22.90
44429;BMP180;30134;47.866;-4.222;2023-03-11T04:28:25;100152.00;;;22.90
44429;BMP180;30134;47.866;-4.222;2023-03-11T04:30:51;100139.00;;;22.90
44429;BMP180;30134;47.866;-4.222;2023-03-11T04:33:17;100150.00;;;22.90
44429;BMP180;30134;47.866;-4.222;2023-03-11T04:35:43;100142.00;;;22.90
44429;BMP180;30134;47.866;-4.222;2023-03-11T04:38:09;100147.00;;;22.90
44429;BMP180;30134;47.866;-4.222;2023-03-11T04:40:39;100140.00;;;22.90
44429;BMP180;30134;47.866;-4.222;2023-03-11T04:43:05;100162.00;;;22.90
44429;BMP180;30134;47.866;-4.222;2023-03-11T04:45:31;100160.00;;;22.90
44429;BMP180;30134;47.866;-4.222;2023-03-11T04:47:58;100185.00;;;22.90
44429;BMP180;30134;47.866;-4.222;2023-03-11T04:50:24;100180.00;;;22.90
44429;BMP180;30134;47.866;-4.222;2023-03-11T04:52:50;100165.00;;;22.90
44429;BMP180;30134;47.866;-4.222;2023-03-11T04:55:16;100175.00;;;22.90
44429;BMP180;30134;47.866;-4.222;2023-03-11T04:57:43;100179.00;;;22.90
44429;BMP180;30134;47.866;-4.222;2023-03-11T05:00:13;100176.00;;;22.90
44429;BMP180;30134;47.866;-4.222;2023-03-11T05:02:41;100172.00;;;22.90
44429;BMP180;30134;47.866;-4.222;2023-03-11T05:05:08;100178.00;;;22.90
44429;BMP180;30134;47.866;-4.222;2023-03-11T05:07:36;100175.00;;;22.90
44429;BMP180;30134;47.866;-4.222;2023-03-11T05:10:03;100183.00;;;22.90
44429;BMP180;30134;47.866;-4.222;2023-03-11T05:12:30;100190.00;;;22.90
44429;BMP180;30134;47.866;-4.222;2023-03-11T05:14:56;100188.00;;;23.00
44429;BMP180;30134;47.866;-4.222;2023-03-11T05:17:22;100177.00;;;23.00
44429;BMP180;30134;47.866;-4.222;2023-03-11T05:19:50;100177.00;;;22.90
44429;BMP180;30134;47.866;-4.222;2023-03-11T05:22:19;100194.00;;;22.90
44429;BMP180;30134;47.866;-4.222;2023-03-11T05:24:45;100202.00;;;22.90
44429;BMP180;30134;47.866;-4.222;2023-03-11T05:27:12;100203.00;;;22.90
44429;BMP180;30134;47.866;-4.222;2023-03-11T05:29:38;100199.00;;;23.00
44429;BMP180;30134;47.866;-4.222;2023-03-11T05:32:05;100204.00;;;23.00
44429;BMP180;30134;47.866;-4.222;2023-03-11T05:34:31;100190.00;;;23.00
44429;BMP180;30134;47.866;-4.222;2023-03-11T05:36:57;100196.00;;;22.90
44429;BMP180;30134;47.866;-4.222;2023-03-11T05:39:23;100187.00;;;23.00
44429;BMP180;30134;47.866;-4.222;2023-03-11T05:41:49;100192.00;;;23.00
44429;BMP180;30134;47.866;-4.222;2023-03-11T05:44:15;100201.00;;;23.00
44429;BMP180;30134;47.866;-4.222;2023-03-11T05:46:41;100195.00;;;23.00
44429;BMP180;30134;47.866;-4.222;2023-03-11T05:49:07;100187.00;;;23.00
44429;BMP180;30134;47.866;-4.222;2023-03-11T05:51:33;100194.00;;;23.00
44429;BMP180;30134;47.866;-4.222;2023-03-11T05:54:00;100212.00;;;23.00
44429;BMP180;30134;47.866;-4.222;2023-03-11T05:56:26;100212.00;;;23.00
44429;BMP180;30134;47.866;-4.222;2023-03-11T05:58:51;100223.00;;;23.10
44429;BMP180;30134;47.866;-4.222;2023-03-11T06:01:18;100228.00;;;23.00
44429;BMP180;30134;47.866;-4.222;2023-03-11T06:03:45;100222.00;;;23.10
44429;BMP180;30134;47.866;-4.222;2023-03-11T06:06:13;100226.00;;;23.00
44429;BMP180;30134;47.866;-4.222;2023-03-11T06:08:39;100229.00;;;23.00
44429;BMP180;30134;47.866;-4.222;2023-03-11T06:11:10;100231.00;;;23.00
44429;BMP180;30134;47.866;-4.222;2023-03-11T06:13:37;100237.00;;;23.00
44429;BMP180;30134;47.866;-4.222;2023-03-11T06:16:03;100239.00;;;23.00
44429;BMP180;30134;47.866;-4.222;2023-03-11T06:18:29;100246.00;;;23.10
44429;BMP180;30134;47.866;-4.222;2023-03-11T06:21:00;100251.00;;;23.00
44429;BMP180;30134;47.866;-4.222;2023-03-11T06:23:27;100244.00;;;23.10
44429;BMP180;30134;47.866;-4.222;2023-03-11T06:25:57;100247.00;;;23.10
44429;BMP180;30134;47.866;-4.222;2023-03-11T06:28:24;100248.00;;;23.00
44429;BMP180;30134;47.866;-4.222;2023-03-11T06:30:51;100256.00;;;23.00
44429;BMP180;30134;47.866;-4.222;2023-03-11T06:33:17;100260.00;;;23.00
44429;BMP180;30134;47.866;-4.222;2023-03-11T06:35:43;100265.00;;;23.00
44429;BMP180;30134;47.866;-4.222;2023-03-11T06:38:09;100263.00;;;23.00
44429;BMP180;30134;47.866;-4.222;2023-03-11T06:40:36;100267.00;;;23.10
44429;BMP180;30134;47.866;-4.222;2023-03-11T06:43:03;100270.00;;;23.10
44429;BMP180;30134;47.866;-4.222;2023-03-11T06:45:29;100268.00;;;23.10
44429;BMP180;30134;47.866;-4.222;2023-03-11T06:47:55;100271.00;;;23.10
44429;BMP180;30134;47.866;-4.222;2023-03-11T06:50:21;100268.00;;;23.10
44429;BMP180;30134;47.866;-4.222;2023-03-11T06:52:48;100277.00;;;23.00
44429;BMP180;30134;47.866;-4.222;2023-03-11T06:55:14;100278.00;;;23.10
44429;BMP180;30134;47.866;-4.222;2023-03-11T06:57:40;100282.00;;;23.10
44429;BMP180;30134;47.866;-4.222;2023-03-11T07:00:07;100285.00;;;23.10
44429;BMP180;30134;47.866;-4.222;2023-03-11T07:02:36;100279.00;;;23.10
44429;BMP180;30134;47.866;-4.222;2023-03-11T07:05:03;100302.00;;;23.10
44429;BMP180;30134;47.866;-4.222;2023-03-11T07:07:29;100298.00;;;23.10
44429;BMP180;30134;47.866;-4.222;2023-03-11T07:09:55;100306.00;;;23.10
44429;BMP180;30134;47.866;-4.222;2023-03-11T07:12:24;100304.00;;;23.10
44429;BMP180;30134;47.866;-4.222;2023-03-11T07:14:55;100307.00;;;23.10
44429;BMP180;30134;47.866;-4.222;2023-03-11T07:17:22;100306.00;;;23.10
44429;BMP180;30134;47.866;-4.222;2023-03-11T07:19:48;100314.00;;;23.20
44429;BMP180;30134;47.866;-4.222;2023-03-11T07:22:14;100331.00;;;23.20
44429;BMP180;30134;47.866;-4.222;2023-03-11T07:24:40;100312.00;;;23.10
44429;BMP180;30134;47.866;-4.222;2023-03-11T07:27:06;100311.00;;;23.10
44429;BMP180;30134;47.866;-4.222;2023-03-11T07:29:32;100323.00;;;23.10
44429;BMP180;30134;47.866;-4.222;2023-03-11T07:31:58;100326.00;;;23.10
44429;BMP180;30134;47.866;-4.222;2023-03-11T07:34:24;100336.00;;;23.10
44429;BMP180;30134;47.866;-4.222;2023-03-11T07:36:50;100339.00;;;23.10
44429;BMP180;30134;47.866;-4.222;2023-03-11T07:39:17;100342.00;;;23.10
44429;BMP180;30134;47.866;-4.222;2023-03-11T07:41:44;100344.00;;;23.20
44429;BMP180;30134;47.866;-4.222;2023-03-11T07:44:12;100342.00;;;22.20
44429;BMP180;30134;47.866;-4.222;2023-03-11T07:46:39;100345.00;;;21.50
44429;BMP180;30134;47.866;-4.222;2023-03-11T07:49:05;100339.00;;;21.20
44429;BMP180;30134;47.866;-4.222;2023-03-11T07:51:36;100338.00;;;21.10
44429;BMP180;30134;47.866;-4.222;2023-03-11T07:54:03;100347.00;;;21.00
44429;BMP180;30134;47.866;-4.222;2023-03-11T07:56:32;100354.00;;;20.90
44429;BMP180;30134;47.866;-4.222;2023-03-11T07:59:01;100357.00;;;20.80
44429;BMP180;30134;47.866;-4.222;2023-03-11T08:01:29;100358.00;;;20.70
44429;BMP180;30134;47.866;-4.222;2023-03-11T08:04:03;100359.00;;;20.70
44429;BMP180;30134;47.866;-4.222;2023-03-11T08:06:31;100356.00;;;20.60
44429;BMP180;30134;47.866;-4.222;2023-03-11T08:09:04;100363.00;;;20.60
44429;BMP180;30134;47.866;-4.222;2023-03-11T08:11:31;100366.00;;;20.50
44429;BMP180;30134;47.866;-4.222;2023-03-11T08:13:58;100370.00;;;20.40
44429;BMP180;30134;47.866;-4.222;2023-03-11T08:16:24;100375.00;;;20.40
44429;BMP180;30134;47.866;-4.222;2023-03-11T08:18:51;100372.00;;;20.40
44429;BMP180;30134;47.866;-4.222;2023-03-11T08:21:21;100383.00;;;20.30
44429;BMP180;30134;47.866;-4.222;2023-03-11T08:23:49;100376.00;;;20.30
44429;BMP180;30134;47.866;-4.222;2023-03-11T08:26:19;100376.00;;;20.30
44429;BMP180;30134;47.866;-4.222;2023-03-11T08:28:48;100382.00;;;20.30
44429;BMP180;30134;47.866;-4.222;2023-03-11T08:31:23;100384.00;;;20.30
44429;BMP180;30134;47.866;-4.222;2023-03-11T08:33:52;100388.00;;;20.20
44429;BMP180;30134;47.866;-4.222;2023-03-11T08:36:20;100394.00;;;20.20
44429;BMP180;30134;47.866;-4.222;2023-03-11T08:38:46;100395.00;;;20.20
44429;BMP180;30134;47.866;-4.222;2023-03-11T08:41:13;100398.00;;;20.10
44429;BMP180;30134;47.866;-4.222;2023-03-11T08:43:40;100394.00;;;20.50
44429;BMP180;30134;47.866;-4.222;2023-03-11T08:46:07;100391.00;;;21.10
44429;BMP180;30134;47.866;-4.222;2023-03-11T08:48:35;100401.00;;;21.40
44429;BMP180;30134;47.866;-4.222;2023-03-11T08:51:11;100408.00;;;21.50
44429;BMP180;30134;47.866;-4.222;2023-03-11T08:53:38;100410.00;;;21.60
44429;BMP180;30134;47.866;-4.222;2023-03-11T08:56:05;100416.00;;;21.70
44429;BMP180;30134;47.866;-4.222;2023-03-11T08:58:31;100411.00;;;21.80
44429;BMP180;30134;47.866;-4.222;2023-03-11T09:00:57;100429.00;;;21.80
44429;BMP180;30134;47.866;-4.222;2023-03-11T09:03:23;100425.00;;;21.90
44429;BMP180;30134;47.866;-4.222;2023-03-11T09:05:57;100429.00;;;22.00
44429;BMP180;30134;47.866;-4.222;2023-03-11T09:08:23;100420.00;;;22.00
44429;BMP180;30134;47.866;-4.222;2023-03-11T09:10:49;100438.00;;;22.00
44429;BMP180;30134;47.866;-4.222;2023-03-11T09:13:15;100433.00;;;22.10
44429;BMP180;30134;47.866;-4.222;2023-03-11T09:15:41;100430.00;;;22.10
44429;BMP180;30134;47.866;-4.222;2023-03-11T09:18:12;100439.00;;;22.10
44429;BMP180;30134;47.866;-4.222;2023-03-11T09:20:40;100445.00;;;22.20
44429;BMP180;30134;47.866;-4.222;2023-03-11T09:23:08;100436.00;;;22.20
44429;BMP180;30134;47.866;-4.222;2023-03-11T09:25:41;100442.00;;;22.20
44429;BMP180;30134;47.866;-4.222;2023-03-11T09:28:07;100452.00;;;22.20
44429;BMP180;30134;47.866;-4.222;2023-03-11T09:30:33;100461.00;;;22.30
44429;BMP180;30134;47.866;-4.222;2023-03-11T09:33:00;100454.00;;;22.30
44429;BMP180;30134;47.866;-4.222;2023-03-11T09:35:27;100456.00;;;22.30
44429;BMP180;30134;47.866;-4.222;2023-03-11T09:37:53;100459.00;;;22.40
44429;BMP180;30134;47.866;-4.222;2023-03-11T09:40:21;100458.00;;;22.40
44429;BMP180;30134;47.866;-4.222;2023-03-11T09:43:06;100476.00;;;22.40
44429;BMP180;30134;47.866;-4.222;2023-03-11T09:45:50;100472.00;;;22.40
44429;BMP180;30134;47.866;-4.222;2023-03-11T09:48:38;100466.00;;;22.40
44429;BMP180;30134;47.866;-4.222;2023-03-11T09:51:16;100476.00;;;22.50
44429;BMP180;30134;47.866;-4.222;2023-03-11T09:53:46;100468.00;;;22.50
44429;BMP180;30134;47.866;-4.222;2023-03-11T09:56:17;100487.00;;;22.50
44429;BMP180;30134;47.866;-4.222;2023-03-11T09:58:51;100487.00;;;22.50
44429;BMP180;30134;47.866;-4.222;2023-03-11T10:01:35;100486.00;;;22.50
44429;BMP180;30134;47.866;-4.222;2023-03-11T10:04:41;100484.00;;;22.50
44429;BMP180;30134;47.866;-4.222;2023-03-11T10:07:16;100491.00;;;22.50
44429;BMP180;30134;47.866;-4.222;2023-03-11T10:09:57;100494.00;;;22.60
44429;BMP180;30134;47.866;-4.222;2023-03-11T10:12:51;100490.00;;;22.60
44429;BMP180;30134;47.866;-4.222;2023-03-11T10:15:51;100491.00;;;22.60
44429;BMP180;30134;47.866;-4.222;2023-03-11T10:19:04;100500.00;;;22.60
44429;BMP180;30134;47.866;-4.222;2023-03-11T10:24:56;100509.00;;;22.70
44429;BMP180;30134;47.866;-4.222;2023-03-11T10:27:48;100523.00;;;22.70
44429;BMP180;30134;47.866;-4.222;2023-03-11T10:30:32;100527.00;;;22.70
44429;BMP180;30134;47.866;-4.222;2023-03-11T10:35:53;100533.00;;;22.80
44429;BMP180;30134;47.866;-4.222;2023-03-11T10:38:27;100531.00;;;22.70
44429;BMP180;30134;47.866;-4.222;2023-03-11T10:41:50;100543.00;;;22.70
44429;BMP180;30134;47.866;-4.222;2023-03-11T10:44:13;100542.00;;;22.70
44429;BMP180;30134;47.866;-4.222;2023-03-11T10:46:40;100540.00;;;22.80
44429;BMP180;30134;47.866;-4.222;2023-03-11T10:49:15;100550.00;;;22.80
44429;BMP180;30134;47.866;-4.222;2023-03-11T10:51:49;100557.00;;;22.80
44429;BMP180;30134;47.866;-4.222;2023-03-11T10:57:05;100560.00;;;22.80
44429;BMP180;30134;47.866;-4.222;2023-03-11T10:59:56;100564.00;;;22.80
44429;BMP180;30134;47.866;-4.222;2023-03-11T11:02:26;100567.00;;;22.90
44429;BMP180;30134;47.866;-4.222;2023-03-11T11:07:50;100579.00;;;22.80
44429;BMP180;30134;47.866;-4.222;2023-03-11T11:10:27;100573.00;;;22.90
44429;BMP180;30134;47.866;-4.222;2023-03-11T11:16:03;100582.00;;;22.90
44429;BMP180;30134;47.866;-4.222;2023-03-11T11:18:50;100587.00;;;22.80
44429;BMP180;30134;47.866;-4.222;2023-03-11T11:21:35;100580.00;;;22.80
44429;BMP180;30134;47.866;-4.222;2023-03-11T11:24:24;100588.00;;;22.90
44429;BMP180;30134;47.866;-4.222;2023-03-11T11:27:23;100594.00;;;22.90
44429;BMP180;30134;47.866;-4.222;2023-03-11T11:30:22;100591.00;;;22.90
44429;BMP180;30134;47.866;-4.222;2023-03-11T11:32:49;100594.00;;;22.90
44429;BMP180;30134;47.866;-4.222;2023-03-11T11:35:20;100593.00;;;22.90
44429;BMP180;30134;47.866;-4.222;2023-03-11T11:37:54;100591.00;;;22.90
44429;BMP180;30134;47.866;-4.222;2023-03-11T11:40:27;100604.00;;;23.00
44429;BMP180;30134;47.866;-4.222;2023-03-11T11:43:15;100610.00;;;23.00
44429;BMP180;30134;47.866;-4.222;2023-03-11T11:45:48;100613.00;;;23.00
44429;BMP180;30134;47.866;-4.222;2023-03-11T11:50:56;100604.00;;;23.00
44429;BMP180;30134;47.866;-4.222;2023-03-11T11:56:24;100606.00;;;23.10
44429;BMP180;30134;47.866;-4.222;2023-03-11T11:58:51;100623.00;;;23.00
44429;BMP180;30134;47.866;-4.222;2023-03-11T12:01:57;100626.00;;;23.10
44429;BMP180;30134;47.866;-4.222;2023-03-11T12:07:24;100633.00;;;23.00
44429;BMP180;30134;47.866;-4.222;2023-03-11T12:27:32;100659.00;;;23.10
44429;BMP180;30134;47.866;-4.222;2023-03-11T12:30:25;100655.00;;;23.10
44429;BMP180;30134;47.866;-4.222;2023-03-11T12:32:59;100651.00;;;23.10
44429;BMP180;30134;47.866;-4.222;2023-03-11T12:35:30;100653.00;;;23.10
44429;BMP180;30134;47.866;-4.222;2023-03-11T12:38:04;100663.00;;;23.10
44429;BMP180;30134;47.866;-4.222;2023-03-11T12:40:57;100664.00;;;23.20
44429;BMP180;30134;47.866;-4.222;2023-03-11T12:46:15;100654.00;;;23.10
44429;BMP180;30134;47.866;-4.222;2023-03-11T12:54:31;100662.00;;;23.20
44429;BMP180;30134;47.866;-4.222;2023-03-11T13:00:05;100660.00;;;23.20
44429;BMP180;30134;47.866;-4.222;2023-03-11T13:08:44;100668.00;;;23.20
44429;BMP180;30134;47.866;-4.222;2023-03-11T13:14:25;100669.00;;;23.30
44429;BMP180;30134;47.866;-4.222;2023-03-11T13:16:53;100671.00;;;23.30
44429;BMP180;30134;47.866;-4.222;2023-03-11T13:21:52;100671.00;;;23.30
44429;BMP180;30134;47.866;-4.222;2023-03-11T13:30:00;100669.00;;;23.30
44429;BMP180;30134;47.866;-4.222;2023-03-11T13:36:22;100659.00;;;23.40
44429;BMP180;30134;47.866;-4.222;2023-03-11T13:41:46;100654.00;;;23.40
44429;BMP180;30134;47.866;-4.222;2023-03-11T13:44:25;100675.00;;;23.40
44429;BMP180;30134;47.866;-4.222;2023-03-11T13:47:02;100668.00;;;23.40
44429;BMP180;30134;47.866;-4.222;2023-03-11T13:52:25;100682.00;;;23.40
44429;BMP180;30134;47.866;-4.222;2023-03-11T13:57:54;100685.00;;;23.40
44429;BMP180;30134;47.866;-4.222;2023-03-11T14:00:26;100692.00;;;23.40
44429;BMP180;30134;47.866;-4.222;2023-03-11T14:05:30;100685.00;;;23.40
44429;BMP180;30134;47.866;-4.222;2023-03-11T14:08:27;100680.00;;;23.40
44429;BMP180;30134;47.866;-4.222;2023-03-11T14:11:00;100681.00;;;23.40
44429;BMP180;30134;47.866;-4.222;2023-03-11T14:13:32;100675.00;;;23.50
44429;BMP180;30134;47.866;-4.222;2023-03-11T14:16:33;100679.00;;;23.50
44429;BMP180;30134;47.866;-4.222;2023-03-11T14:19:18;100679.00;;;23.40
44429;BMP180;30134;47.866;-4.222;2023-03-11T14:21:48;100677.00;;;23.40
44429;BMP180;30134;47.866;-4.222;2023-03-11T14:24:25;100678.00;;;23.40
44429;BMP180;30134;47.866;-4.222;2023-03-11T14:26:54;100686.00;;;23.50
44429;BMP180;30134;47.866;-4.222;2023-03-11T14:29:31;100685.00;;;23.50
44429;BMP180;30134;47.866;-4.222;2023-03-11T14:31:57;100687.00;;;23.50
44429;BMP180;30134;47.866;-4.222;2023-03-11T14:34:27;100681.00;;;23.40
44429;BMP180;30134;47.866;-4.222;2023-03-11T14:36:57;100691.00;;;23.50
44429;BMP180;30134;47.866;-4.222;2023-03-11T14:39:34;100678.00;;;23.50
44429;BMP180;30134;47.866;-4.222;2023-03-11T14:44:49;100688.00;;;23.50
44429;BMP180;30134;47.866;-4.222;2023-03-11T14:47:31;100693.00;;;23.60
44429;BMP180;30134;47.866;-4.222;2023-03-11T14:49:58;100703.00;;;23.50
44429;BMP180;30134;47.866;-4.222;2023-03-11T14:55:29;100698.00;;;23.50
44429;BMP180;30134;47.866;-4.222;2023-03-11T14:58:25;100703.00;;;23.50
44429;BMP180;30134;47.866;-4.222;2023-03-11T15:04:29;100708.00;;;23.60
44429;BMP180;30134;47.866;-4.222;2023-03-11T15:06:57;100709.00;;;23.50
44429;BMP180;30134;47.866;-4.222;2023-03-11T15:09:25;100703.00;;;23.60
44429;BMP180;30134;47.866;-4.222;2023-03-11T15:14:34;100706.00;;;23.50
44429;BMP180;30134;47.866;-4.222;2023-03-11T15:19:50;100706.00;;;23.50
44429;BMP180;30134;47.866;-4.222;2023-03-11T15:24:56;100710.00;;;23.60
44429;BMP180;30134;47.866;-4.222;2023-03-11T15:27:35;100697.00;;;23.60
44429;BMP180;30134;47.866;-4.222;2023-03-11T15:30:29;100695.00;;;23.60
44429;BMP180;30134;47.866;-4.222;2023-03-11T15:32:56;100711.00;;;23.50
44429;BMP180;30134;47.866;-4.222;2023-03-11T15:35:46;100704.00;;;23.60
44429;BMP180;30134;47.866;-4.222;2023-03-11T15:38:23;100707.00;;;23.60
44429;BMP180;30134;47.866;-4.222;2023-03-11T15:40:56;100713.00;;;23.60
44429;BMP180;30134;47.866;-4.222;2023-03-11T15:43:33;100713.00;;;23.10
44429;BMP180;30134;47.866;-4.222;2023-03-11T15:46:09;100717.00;;;23.40
44429;BMP180;30134;47.866;-4.222;2023-03-11T15:48:35;100715.00;;;23.50
44429;BMP180;30134;47.866;-4.222;2023-03-11T15:51:01;100702.00;;;23.50
44429;BMP180;30134;47.866;-4.222;2023-03-11T15:53:29;100712.00;;;23.50